createdAt,value
2023-01-30T00:01:16.441Z,100048.03
2023-01-30T00:04:01.530Z,100048.77
2023-01-30T00:06:46.736Z,100042.04
2023-01-30T00:09:31.720Z,100036.44
2023-01-30T00:12:16.861Z,100029.77
2023-01-30T00:15:02.398Z,100026.86
2023-01-30T00:17:47.650Z,100020.83
2023-01-30T00:20:33.679Z,100009.46
2023-01-30T00:23:18.963Z,100006.59
2023-01-30T00:26:27.009Z,100002.15
2023-01-30T00:29:13.444Z,99996.13
2023-01-30T00:32:00.218Z,99987.55
2023-01-30T00:34:46.986Z,99978.20
2023-01-30T00:37:33.654Z,99978.43
2023-01-30T00:40:20.716Z,99972.63
2023-01-30T00:43:26.113Z,99963.46
2023-01-30T00:46:46.071Z,99950.62
2023-01-30T00:49:33.548Z,99942.14
2023-01-30T00:52:20.156Z,99939.23
2023-01-30T00:55:07.651Z,99938.50
2023-01-30T00:57:53.978Z,99926.98
2023-01-30T01:00:40.724Z,99920.66
2023-01-30T01:03:36.166Z,99908.14
2023-01-30T01:07:31.421Z,99898.06
2023-01-30T01:10:18.301Z,99901.27
2023-01-30T01:13:07.021Z,99891.98
2023-01-30T01:16:06.294Z,99882.88
2023-01-30T01:18:53.905Z,99876.54
2023-01-30T01:21:51.317Z,99865.51
2023-01-30T01:24:37.953Z,99850.30
2023-01-30T01:27:24.860Z,99849.08
2023-01-30T01:30:12.480Z,99839.73
2023-01-30T01:32:58.956Z,99827.17
2023-01-30T01:35:47.690Z,99816.14
2023-01-30T01:38:34.407Z,99816.89
2023-01-30T01:41:20.969Z,99802.23
2023-01-30T01:46:08.521Z,99793.73
2023-01-30T01:50:27.053Z,99792.50
2023-01-30T01:53:47.392Z,99784.45
2023-01-30T01:57:51.425Z,99768.95
2023-01-30T02:02:10.443Z,99774.67
2023-01-30T02:05:52.454Z,99760.02
2023-01-30T02:09:00.707Z,99756.84
2023-01-30T02:13:00.609Z,99751.59
2023-01-30T02:16:59.979Z,99747.52
2023-01-30T02:20:02.025Z,99745.83
2023-01-30T02:23:06.834Z,99737.56
2023-01-30T02:26:25.623Z,99733.83
2023-01-30T02:29:41.314Z,99728.54
2023-01-30T02:34:23.289Z,99719.71
2023-01-30T02:38:03.217Z,99710.73
2023-01-30T02:41:41.930Z,99712.47
2023-01-30T02:45:01.674Z,99703.43
2023-01-30T02:50:12.882Z,99698.18
2023-01-30T02:54:19.381Z,99678.83
2023-01-30T02:58:12.904Z,99674.71
2023-01-30T03:02:45.374Z,99676.00
2023-01-30T03:06:04.504Z,99670.70
2023-01-30T03:10:05.745Z,99660.44
2023-01-30T03:14:23.697Z,99654.52
2023-01-30T03:18:20.403Z,99639.95
2023-01-30T03:22:17.410Z,99631.23
2023-01-30T03:26:36.049Z,99611.45
2023-01-30T03:30:34.091Z,99592.16
2023-01-30T03:34:31.273Z,99576.02
2023-01-30T03:37:18.280Z,99571.04
2023-01-30T03:40:05.509Z,99566.59
2023-01-30T03:42:52.252Z,99560.04
2023-01-30T03:45:38.689Z,99556.02
2023-01-30T03:48:25.397Z,99553.17
2023-01-30T03:51:15.556Z,99554.30
2023-01-30T03:54:02.401Z,99548.30
2023-01-30T03:56:49.140Z,99553.06
2023-01-30T03:59:37.618Z,99541.43
2023-01-30T04:02:26.248Z,99539.30
2023-01-30T04:05:13.055Z,99535.22
2023-01-30T04:07:59.991Z,99527.25
2023-01-30T04:10:48.035Z,99520.77
2023-01-30T04:13:34.743Z,99514.52
2023-01-30T04:16:24.157Z,99512.21
2023-01-30T04:19:10.826Z,99498.67
2023-01-30T04:21:57.475Z,99495.41
2023-01-30T04:24:44.223Z,99489.63
2023-01-30T04:27:30.888Z,99483.80
2023-01-30T04:30:17.869Z,99479.20
2023-01-30T04:33:04.411Z,99470.45
2023-01-30T04:35:56.062Z,99462.86
2023-01-30T04:38:43.364Z,99454.38
2023-01-30T04:41:30.004Z,99443.63
2023-01-30T04:44:18.844Z,99437.34
2023-01-30T04:47:05.577Z,99427.52
2023-01-30T04:49:52.017Z,99428.61
2023-01-30T04:52:39.909Z,99425.61
2023-01-30T04:56:09.521Z,99411.71
2023-01-30T05:00:05.868Z,99403.52
2023-01-30T05:04:03.512Z,99402.68
2023-01-30T05:08:01.705Z,99410.14
2023-01-30T05:11:57.923Z,99406.74
2023-01-30T05:15:54.547Z,99386.63
2023-01-30T05:18:41.587Z,99374.24
2023-01-30T05:21:29.970Z,99375.01
2023-01-30T05:24:34.215Z,99364.94
2023-01-30T05:27:21.243Z,99355.41
2023-01-30T05:32:40.601Z,99338.58
2023-01-30T05:36:38.217Z,99334.90
2023-01-30T05:40:38.359Z,99321.84
2023-01-30T05:44:13.149Z,99312.98
2023-01-30T05:48:15.780Z,99313.84
2023-01-30T05:52:13.933Z,99314.13
2023-01-30T05:56:11.874Z,99314.85
2023-01-30T06:10:38.227Z,99293.73
2023-01-30T06:13:47.017Z,99292.57
2023-01-30T06:17:43.789Z,99267.80
2023-01-30T06:21:09.520Z,99253.33
2023-01-30T06:24:28.052Z,99251.15
2023-01-30T06:28:26.253Z,99233.61
2023-01-30T06:31:13.454Z,99235.42
2023-01-30T06:34:00.812Z,99242.21
2023-01-30T06:36:47.584Z,99227.18
2023-01-30T06:55:52.063Z,99224.27
2023-01-30T07:09:38.525Z,99208.09
2023-01-30T07:12:32.937Z,99204.58
2023-01-30T07:16:49.453Z,99200.53
2023-01-30T07:19:34.523Z,99194.04
2023-01-30T07:22:23.303Z,99188.49
2023-01-30T07:25:08.982Z,99194.58
2023-01-30T07:27:59.181Z,99179.64
2023-01-30T07:30:27.736Z,99183.70
2023-01-30T07:33:13.358Z,99186.36
2023-01-30T07:35:58.612Z,99180.04
2023-01-30T07:40:39.415Z,99171.00
2023-01-30T07:43:25.801Z,99157.95
2023-01-30T07:46:14.547Z,99156.63
2023-01-30T07:49:02.320Z,99150.84
2023-01-30T07:51:49.027Z,99149.27
2023-01-30T07:54:35.646Z,99140.62
2023-01-30T07:57:33.254Z,99133.16
2023-01-30T08:01:28.279Z,99131.02
2023-01-30T08:05:31.370Z,99121.98
2023-01-30T08:09:26.541Z,99120.10
2023-01-30T08:12:13.773Z,99124.48
2023-01-30T08:15:01.029Z,99121.15
2023-01-30T08:17:56.970Z,99121.59
2023-01-30T08:20:43.657Z,99107.35
2023-01-30T08:24:38.744Z,99099.84
2023-01-30T08:34:43.299Z,99093.09
2023-01-30T08:38:40.619Z,99086.27
2023-01-30T08:41:28.474Z,99090.21
2023-01-30T08:44:15.415Z,99093.24
2023-01-30T08:47:02.197Z,99091.02
2023-01-30T08:49:59.671Z,99094.61
2023-01-30T08:52:57.798Z,99090.63
2023-01-30T08:55:45.438Z,99080.98
2023-01-30T08:58:43.968Z,99079.09
2023-01-30T09:01:30.530Z,99074.52
2023-01-30T09:04:19.943Z,99066.80
2023-01-30T09:07:22.582Z,99055.63
2023-01-30T09:10:09.901Z,99053.14
2023-01-30T09:12:56.769Z,99043.41
2023-01-30T09:15:44.312Z,99043.78
2023-01-30T09:18:31.336Z,99037.71
2023-01-30T09:32:16.340Z,99013.59
2023-01-30T09:35:19.200Z,99004.68
2023-01-30T09:38:05.924Z,99007.44
2023-01-30T09:41:18.491Z,99004.36
2023-01-30T09:44:31.107Z,98995.84
2023-01-30T09:47:42.612Z,98997.70
2023-01-30T09:50:57.985Z,98986.09
2023-01-30T09:54:03.651Z,98987.89
2023-01-30T09:56:58.485Z,98979.27
2023-01-30T09:59:54.896Z,98965.63
2023-01-30T10:02:52.319Z,98959.29
2023-01-30T10:05:48.483Z,98952.09
2023-01-30T10:08:58.117Z,98950.91
2023-01-30T10:12:13.998Z,98949.07
2023-01-30T10:15:34.951Z,98944.58
2023-01-30T10:18:47.916Z,98930.59
2023-01-30T10:21:56.390Z,98927.36
2023-01-30T10:25:15.449Z,98925.09
2023-01-30T10:28:26.968Z,98918.81
2023-01-30T10:31:28.310Z,98913.64
2023-01-30T10:35:34.374Z,98904.88
2023-01-30T10:40:01.984Z,98903.70
2023-01-30T10:43:51.130Z,98901.05
2023-01-30T10:48:26.548Z,98890.64
2023-01-30T10:51:46.264Z,98881.92
2023-01-30T10:56:09.342Z,98881.73
2023-01-30T10:59:20.342Z,98876.22
2023-01-30T11:02:31.018Z,98874.02
2023-01-30T11:05:38.808Z,98870.69
2023-01-30T11:08:27.174Z,98872.91
2023-01-30T11:12:00.305Z,98864.67
2023-01-30T11:15:58.514Z,98860.80
2023-01-30T11:19:18.931Z,98856.84
2023-01-30T11:22:02.888Z,98851.36
2023-01-30T11:24:49.602Z,98849.00
2023-01-30T11:27:37.456Z,98842.38
2023-01-30T11:30:30.301Z,98841.95
2023-01-30T11:33:18.281Z,98831.52
2023-01-30T11:36:07.388Z,98826.48
2023-01-30T11:39:05.143Z,98817.63
2023-01-30T11:42:04.910Z,98811.30
2023-01-30T11:56:54.714Z,98798.67
2023-01-30T12:00:04.909Z,98798.14
2023-01-30T12:03:30.503Z,98797.70
2023-01-30T12:06:23.403Z,98791.67
2023-01-30T12:09:32.346Z,98788.22
2023-01-30T12:12:58.277Z,98788.04
2023-01-30T12:15:48.396Z,98783.70
2023-01-30T12:20:28.553Z,98779.47
2023-01-30T12:25:18.530Z,98778.17
2023-01-30T12:33:59.220Z,98771.44
2023-01-30T12:38:00.741Z,98760.78
2023-01-30T12:42:39.988Z,98766.64
2023-01-30T12:46:11.070Z,98769.55
2023-01-30T12:49:25.122Z,98766.90
2023-01-30T12:52:45.817Z,98763.77
2023-01-30T12:55:38.796Z,98763.96
2023-01-30T12:58:46.927Z,98765.48
2023-01-30T13:02:58.232Z,98771.55
2023-01-30T13:07:30.258Z,98768.02
2023-01-30T13:10:54.351Z,98763.78
2023-01-30T13:15:11.312Z,98760.98
2023-01-30T13:19:21.124Z,98763.48
2023-01-30T13:22:54.486Z,98764.98
2023-01-30T13:26:04.002Z,98765.36
2023-01-30T13:29:05.887Z,98759.78
2023-01-30T13:31:57.258Z,98752.19
2023-01-30T13:34:48.024Z,98748.73
2023-01-30T13:37:38.977Z,98747.70
2023-01-30T13:40:29.653Z,98747.23
2023-01-30T13:43:25.763Z,98741.88
2023-01-30T13:46:54.345Z,98744.02
2023-01-30T13:51:01.958Z,98753.46
2023-01-30T13:53:53.852Z,98747.14
2023-01-30T13:56:57.837Z,98740.53
2023-01-30T14:00:31.538Z,98738.91
2023-01-30T14:03:30.343Z,98742.86
2023-01-30T14:06:33.708Z,98746.56
2023-01-30T14:09:29.379Z,98752.04
2023-01-30T14:12:23.658Z,98753.57
2023-01-30T14:15:16.637Z,98761.02
2023-01-30T14:18:23.422Z,98762.59
2023-01-30T14:21:24.557Z,98769.52
2023-01-30T14:26:53.369Z,98768.25
2023-01-30T14:30:53.497Z,98765.30
2023-01-30T14:33:51.243Z,98768.98
2023-01-30T14:36:47.612Z,98772.16
2023-01-30T14:39:41.088Z,98772.68
2023-01-30T14:45:17.899Z,98780.73
2023-01-30T14:49:26.673Z,98783.12
2023-01-30T14:53:25.420Z,98777.18
2023-01-30T14:57:32.954Z,98776.02
2023-01-30T15:02:13.023Z,98776.64
2023-01-30T15:06:11.019Z,98775.73
2023-01-30T15:10:24.551Z,98775.34
2023-01-30T15:14:29.981Z,98780.82
2023-01-30T15:17:33.185Z,98779.08
2023-01-30T15:21:19.555Z,98780.76
2023-01-30T15:24:40.581Z,98784.26
2023-01-30T15:29:05.727Z,98781.90
2023-01-30T15:33:30.433Z,98787.16
2023-01-30T15:47:21.838Z,98802.80
2023-01-30T15:50:36.504Z,98802.38
2023-01-30T15:53:57.920Z,98803.39
2023-01-30T16:08:29.139Z,98816.56
2023-01-30T16:27:18.553Z,98819.20
2023-01-30T16:40:49.808Z,98813.13
2023-01-30T16:43:45.737Z,98816.30
2023-01-30T16:48:17.118Z,98819.67
2023-01-30T16:53:09.291Z,98827.46
2023-01-30T16:57:04.918Z,98837.02
2023-01-30T17:01:40.107Z,98838.00
2023-01-30T17:04:43.865Z,98827.87
2023-01-30T17:18:51.747Z,98823.93
2023-01-30T17:21:51.668Z,98824.52
2023-01-30T17:26:44.783Z,98832.11
2023-01-30T17:30:42.239Z,98830.52
2023-01-30T17:34:52.709Z,98833.50
2023-01-30T17:38:24.387Z,98837.27
2023-01-30T17:52:43.877Z,98841.16
2023-01-30T18:47:46.501Z,98865.86
2023-01-30T18:50:49.053Z,98860.13
2023-01-30T18:54:23.301Z,98859.64
2023-01-30T18:59:15.971Z,98858.85
2023-01-30T19:13:04.681Z,98860.20
2023-01-30T19:16:04.750Z,98867.14
2023-01-30T19:19:39.635Z,98869.01
2023-01-30T19:24:59.124Z,98866.77
2023-01-30T19:38:53.178Z,98867.52
2023-01-30T19:41:55.493Z,98872.31
2023-01-30T19:45:35.116Z,98874.29
2023-01-30T19:49:07.621Z,98870.26
2023-01-30T20:03:59.012Z,98876.02
2023-01-30T20:07:00.157Z,98874.35
2023-01-30T20:35:10.651Z,98884.27
2023-01-30T21:03:12.444Z,98927.91
2023-01-30T22:13:41.705Z,98984.02
2023-01-30T22:16:58.162Z,98981.84
2023-01-30T22:31:16.824Z,98998.23
2023-01-30T22:34:11.538Z,99006.02
2023-01-30T22:38:06.838Z,99012.10
